sensor_id;sensor_type;location;lat;lon;timestamp;pressure;altitude;pressure_sealevel;temperature;humidity
57779;BME280;43608;49.486;9.640;2023-03-04T00:00:19;99278.81;;;-3.02;79.01
57779;BME280;43608;49.486;9.640;2023-03-04T00:00:49;99291.34;;;-2.95;79.44
57779;BME280;43608;49.486;9.640;2023-03-04T00:01:20;99287.50;;;-3.02;79.50
57779;BME280;43608;49.486;9.640;2023-03-04T00:01:50;99284.72;;;-3.05;79.05
57779;BME280;43608;49.486;9.640;2023-03-04T00:02:21;99314.06;;;-2.91;79.36
57779;BME280;43608;49.486;9.640;2023-03-04T00:02:51;99303.41;;;-2.95;79.56
57779;BME280;43608;49.486;9.640;2023-03-04T00:03:22;99288.22;;;-3.04;79.06
57779;BME280;43608;49.486;9.640;2023-03-04T00:03:52;99300.72;;;-2.97;79.30
57779;BME280;43608;49.486;9.640;2023-03-04T00:04:22;99303.31;;;-2.97;79.26
57779;BME280;43608;49.486;9.640;2023-03-04T00:04:53;99312.19;;;-2.93;79.51
57779;BME280;43608;49.486;9.640;2023-03-04T00:05:23;99311.09;;;-2.97;79.07
57779;BME280;43608;49.486;9.640;2023-03-04T00:05:53;99289.53;;;-3.11;79.48
57779;BME280;43608;49.486;9.640;2023-03-04T00:06:24;99298.59;;;-3.04;79.54
57779;BME280;43608;49.486;9.640;2023-03-04T00:06:54;99300.34;;;-3.03;79.48
57779;BME280;43608;49.486;9.640;2023-03-04T00:07:25;99307.25;;;-3.04;79.39
57779;BME280;43608;49.486;9.640;2023-03-04T00:07:55;99295.78;;;-3.07;78.91
57779;BME280;43608;49.486;9.640;2023-03-04T00:08:25;99309.84;;;-3.04;79.06
57779;BME280;43608;49.486;9.640;2023-03-04T00:08:56;99302.06;;;-3.04;79.46
57779;BME280;43608;49.486;9.640;2023-03-04T00:09:26;99313.31;;;-3.03;79.30
57779;BME280;43608;49.486;9.640;2023-03-04T00:09:57;99309.06;;;-3.03;79.07
57779;BME280;43608;49.486;9.640;2023-03-04T00:10:27;99314.94;;;-3.05;79.21
57779;BME280;43608;49.486;9.640;2023-03-04T00:10:58;99301.63;;;-3.11;79.62
57779;BME280;43608;49.486;9.640;2023-03-04T00:11:28;99278.63;;;-3.20;79.65
57779;BME280;43608;49.486;9.640;2023-03-04T00:11:58;99318.50;;;-3.03;79.49
57779;BME280;43608;49.486;9.640;2023-03-04T00:12:29;99305.00;;;-3.12;79.28
57779;BME280;43608;49.486;9.640;2023-03-04T00:12:59;99307.88;;;-3.08;79.61
57779;BME280;43608;49.486;9.640;2023-03-04T00:13:30;99310.56;;;-3.06;79.24
57779;BME280;43608;49.486;9.640;2023-03-04T00:14:00;99284.34;;;-3.26;79.70
57779;BME280;43608;49.486;9.640;2023-03-04T00:14:30;99294.25;;;-3.19;79.44
57779;BME280;43608;49.486;9.640;2023-03-04T00:15:01;99292.50;;;-3.20;79.47
57779;BME280;43608;49.486;9.640;2023-03-04T00:15:31;99313.06;;;-3.08;79.85
57779;BME280;43608;49.486;9.640;2023-03-04T00:16:02;99306.50;;;-3.16;79.71
57779;BME280;43608;49.486;9.640;2023-03-04T00:16:32;99293.28;;;-3.21;79.47
57779;BME280;43608;49.486;9.640;2023-03-04T00:17:03;99304.13;;;-3.13;79.68
57779;BME280;43608;49.486;9.640;2023-03-04T00:17:33;99310.97;;;-3.13;79.32
57779;BME280;43608;49.486;9.640;2023-03-04T00:18:04;99298.38;;;-3.22;79.73
57779;BME280;43608;49.486;9.640;2023-03-04T00:18:34;99300.91;;;-3.24;79.73
57779;BME280;43608;49.486;9.640;2023-03-04T00:19:05;99302.03;;;-3.19;79.60
57779;BME280;43608;49.486;9.640;2023-03-04T00:19:35;99294.78;;;-3.24;79.66
57779;BME280;43608;49.486;9.640;2023-03-04T00:20:06;99299.97;;;-3.24;79.80
57779;BME280;43608;49.486;9.640;2023-03-04T00:20:37;99297.31;;;-3.26;79.33
57779;BME280;43608;49.486;9.640;2023-03-04T00:21:07;99309.94;;;-3.17;79.55
57779;BME280;43608;49.486;9.640;2023-03-04T00:21:37;99310.63;;;-3.20;79.41
57779;BME280;43608;49.486;9.640;2023-03-04T00:22:08;99312.53;;;-3.17;79.50
57779;BME280;43608;49.486;9.640;2023-03-04T00:22:39;99307.13;;;-3.20;79.37
57779;BME280;43608;49.486;9.640;2023-03-04T00:23:09;99305.25;;;-3.23;79.45
57779;BME280;43608;49.486;9.640;2023-03-04T00:23:39;99303.38;;;-3.25;79.78
57779;BME280;43608;49.486;9.640;2023-03-04T00:24:11;99321.19;;;-3.17;79.50
57779;BME280;43608;49.486;9.640;2023-03-04T00:24:41;99316.78;;;-3.18;79.50
57779;BME280;43608;49.486;9.640;2023-03-04T00:25:12;99316.63;;;-3.21;79.50
57779;BME280;43608;49.486;9.640;2023-03-04T00:25:43;99313.13;;;-3.21;79.38
57779;BME280;43608;49.486;9.640;2023-03-04T00:26:14;99300.50;;;-3.30;79.64
57779;BME280;43608;49.486;9.640;2023-03-04T00:26:45;99313.94;;;-3.22;79.36
57779;BME280;43608;49.486;9.640;2023-03-04T00:27:15;99297.84;;;-3.32;79.44
57779;BME280;43608;49.486;9.640;2023-03-04T00:27:45;99312.22;;;-3.22;79.57
57779;BME280;43608;49.486;9.640;2023-03-04T00:28:16;99296.84;;;-3.34;79.48
57779;BME280;43608;49.486;9.640;2023-03-04T00:28:47;99306.97;;;-3.23;79.76
57779;BME280;43608;49.486;9.640;2023-03-04T00:29:17;99316.53;;;-3.22;79.70
57779;BME280;43608;49.486;9.640;2023-03-04T00:29:48;99288.88;;;-3.37;79.55
57779;BME280;43608;49.486;9.640;2023-03-04T00:30:18;99306.78;;;-3.26;79.70
57779;BME280;43608;49.486;9.640;2023-03-04T00:30:49;99294.88;;;-3.38;79.76
57779;BME280;43608;49.486;9.640;2023-03-04T00:31:19;99317.25;;;-3.25;79.52
57779;BME280;43608;49.486;9.640;2023-03-04T00:31:49;99313.47;;;-3.30;79.30
57779;BME280;43608;49.486;9.640;2023-03-04T00:32:20;99302.56;;;-3.39;79.70
57779;BME280;43608;49.486;9.640;2023-03-04T00:32:50;99315.16;;;-3.30;79.66
57779;BME280;43608;49.486;9.640;2023-03-04T00:33:21;99321.34;;;-3.28;79.54
57779;BME280;43608;49.486;9.640;2023-03-04T00:33:51;99316.88;;;-3.31;79.71
57779;BME280;43608;49.486;9.640;2023-03-04T00:34:21;99252.31;;;-3.70;79.50
57779;BME280;43608;49.486;9.640;2023-03-04T00:34:52;99286.25;;;-3.52;79.82
57779;BME280;43608;49.486;9.640;2023-03-04T00:35:22;99301.38;;;-3.44;79.63
57779;BME280;43608;49.486;9.640;2023-03-04T00:35:53;99311.03;;;-3.42;79.61
57779;BME280;43608;49.486;9.640;2023-03-04T00:36:23;99299.28;;;-3.50;79.86
57779;BME280;43608;49.486;9.640;2023-03-04T00:36:54;99324.16;;;-3.39;79.89
57779;BME280;43608;49.486;9.640;2023-03-04T00:37:30;99320.41;;;-3.44;79.90
57779;BME280;43608;49.486;9.640;2023-03-04T00:38:00;99317.91;;;-3.42;79.79
57779;BME280;43608;49.486;9.640;2023-03-04T00:38:31;99320.50;;;-3.42;79.87
57779;BME280;43608;49.486;9.640;2023-03-04T00:39:01;99278.16;;;-3.71;79.95
57779;BME280;43608;49.486;9.640;2023-03-04T00:39:31;99321.03;;;-3.48;79.95
57779;BME280;43608;49.486;9.640;2023-03-04T00:40:02;99318.34;;;-3.50;80.16
57779;BME280;43608;49.486;9.640;2023-03-04T00:40:33;99295.16;;;-3.61;80.21
57779;BME280;43608;49.486;9.640;2023-03-04T00:41:03;99322.81;;;-3.47;80.24
57779;BME280;43608;49.486;9.640;2023-03-04T00:41:34;99325.28;;;-3.49;80.35
57779;BME280;43608;49.486;9.640;2023-03-04T00:42:04;99314.47;;;-3.56;79.96
57779;BME280;43608;49.486;9.640;2023-03-04T00:42:35;99286.63;;;-3.74;80.36
57779;BME280;43608;49.486;9.640;2023-03-04T00:43:05;99318.03;;;-3.54;80.75
57779;BME280;43608;49.486;9.640;2023-03-04T00:43:36;99306.50;;;-3.59;80.17
57779;BME280;43608;49.486;9.640;2023-03-04T00:44:07;99325.91;;;-3.53;80.41
57779;BME280;43608;49.486;9.640;2023-03-04T00:44:37;99301.84;;;-3.65;80.22
57779;BME280;43608;49.486;9.640;2023-03-04T00:45:08;99323.22;;;-3.54;80.30
57779;BME280;43608;49.486;9.640;2023-03-04T00:45:38;99292.19;;;-3.68;80.51
57779;BME280;43608;49.486;9.640;2023-03-04T00:46:09;99300.94;;;-3.66;80.73
57779;BME280;43608;49.486;9.640;2023-03-04T00:46:39;99280.34;;;-3.77;80.40
57779;BME280;43608;49.486;9.640;2023-03-04T00:47:10;99299.03;;;-3.68;80.38
57779;BME280;43608;49.486;9.640;2023-03-04T00:47:40;99301.47;;;-3.71;80.73
57779;BME280;43608;49.486;9.640;2023-03-04T00:48:10;99316.94;;;-3.58;80.46
57779;BME280;43608;49.486;9.640;2023-03-04T00:48:41;99305.84;;;-3.70;80.52
57779;BME280;43608;49.486;9.640;2023-03-04T00:49:12;99304.22;;;-3.68;80.43
57779;BME280;43608;49.486;9.640;2023-03-04T00:49:42;99317.78;;;-3.59;80.92
57779;BME280;43608;49.486;9.640;2023-03-04T00:50:12;99313.00;;;-3.66;80.76
57779;BME280;43608;49.486;9.640;2023-03-04T00:50:43;99321.16;;;-3.60;80.80
57779;BME280;43608;49.486;9.640;2023-03-04T00:51:13;99305.75;;;-3.72;80.58
57779;BME280;43608;49.486;9.640;2023-03-04T00:51:43;99312.22;;;-3.65;81.03
57779;BME280;43608;49.486;9.640;2023-03-04T00:52:14;99313.00;;;-3.66;80.92
57779;BME280;43608;49.486;9.640;2023-03-04T00:52:44;99313.88;;;-3.66;80.94
57779;BME280;43608;49.486;9.640;2023-03-04T00:53:15;99324.47;;;-3.62;80.98
57779;BME280;43608;49.486;9.640;2023-03-04T00:53:45;99316.47;;;-3.66;81.33
57779;BME280;43608;49.486;9.640;2023-03-04T00:54:16;99319.06;;;-3.66;81.03
57779;BME280;43608;49.486;9.640;2023-03-04T00:54:47;99307.53;;;-3.71;81.04
57779;BME280;43608;49.486;9.640;2023-03-04T00:55:17;99321.66;;;-3.66;80.97
57779;BME280;43608;49.486;9.640;2023-03-04T00:55:47;99307.53;;;-3.71;80.85
57779;BME280;43608;49.486;9.640;2023-03-04T00:56:18;99288.72;;;-3.82;80.44
57779;BME280;43608;49.486;9.640;2023-03-04T00:56:48;99317.38;;;-3.65;80.59
57779;BME280;43608;49.486;9.640;2023-03-04T00:57:18;99313.53;;;-3.72;80.74
57779;BME280;43608;49.486;9.640;2023-03-04T00:57:49;99312.69;;;-3.71;80.69
57779;BME280;43608;49.486;9.640;2023-03-04T00:58:19;99316.91;;;-3.73;80.66
57779;BME280;43608;49.486;9.640;2023-03-04T00:58:50;99322.47;;;-3.67;80.58
57779;BME280;43608;49.486;9.640;2023-03-04T00:59:20;99285.06;;;-3.85;80.70
57779;BME280;43608;49.486;9.640;2023-03-04T00:59:50;99318.00;;;-3.69;80.60
57779;BME280;43608;49.486;9.640;2023-03-04T01:00:21;99311.81;;;-3.71;80.82
57779;BME280;43608;49.486;9.640;2023-03-04T01:00:52;99292.03;;;-3.84;80.31
57779;BME280;43608;49.486;9.640;2023-03-04T01:01:22;99317.78;;;-3.72;80.89
57779;BME280;43608;49.486;9.640;2023-03-04T01:01:52;99301.88;;;-3.78;80.71
57779;BME280;43608;49.486;9.640;2023-03-04T01:02:23;99315.13;;;-3.74;80.37
57779;BME280;43608;49.486;9.640;2023-03-04T01:02:53;99298.91;;;-3.85;80.45
57779;BME280;43608;49.486;9.640;2023-03-04T01:03:23;99317.53;;;-3.77;80.59
57779;BME280;43608;49.486;9.640;2023-03-04T01:03:55;99306.06;;;-3.80;80.89
57779;BME280;43608;49.486;9.640;2023-03-04T01:04:26;99321.19;;;-3.73;80.55
57779;BME280;43608;49.486;9.640;2023-03-04T01:04:56;99320.28;;;-3.74;80.57
57779;BME280;43608;49.486;9.640;2023-03-04T01:05:27;99298.00;;;-3.85;80.74
57779;BME280;43608;49.486;9.640;2023-03-04T01:05:58;99306.88;;;-3.82;80.63
57779;BME280;43608;49.486;9.640;2023-03-04T01:06:28;99312.84;;;-3.83;80.74
57779;BME280;43608;49.486;9.640;2023-03-04T01:06:59;99311.16;;;-3.82;80.90
57779;BME280;43608;49.486;9.640;2023-03-04T01:07:29;99301.59;;;-3.83;80.62
57779;BME280;43608;49.486;9.640;2023-03-04T01:07:59;99272.75;;;-4.03;80.69
57779;BME280;43608;49.486;9.640;2023-03-04T01:08:30;99300.41;;;-3.88;80.47
57779;BME280;43608;49.486;9.640;2023-03-04T01:09:00;99286.09;;;-3.96;80.57
57779;BME280;43608;49.486;9.640;2023-03-04T01:09:31;99301.41;;;-3.86;80.50
57779;BME280;43608;49.486;9.640;2023-03-04T01:10:01;99306.78;;;-3.83;80.41
57779;BME280;43608;49.486;9.640;2023-03-04T01:10:31;99311.06;;;-3.84;80.10
57779;BME280;43608;49.486;9.640;2023-03-04T01:11:02;99311.06;;;-3.84;80.59
57779;BME280;43608;49.486;9.640;2023-03-04T01:11:32;99294.75;;;-3.96;80.37
57779;BME280;43608;49.486;9.640;2023-03-04T01:12:03;99310.94;;;-3.85;80.57
57779;BME280;43608;49.486;9.640;2023-03-04T01:12:34;99303.63;;;-3.92;80.38
57779;BME280;43608;49.486;9.640;2023-03-04T01:13:04;99275.97;;;-4.07;80.25
57779;BME280;43608;49.486;9.640;2023-03-04T01:13:35;99296.81;;;-3.90;80.46
57779;BME280;43608;49.486;9.640;2023-03-04T01:14:05;99309.75;;;-3.90;80.62
57779;BME280;43608;49.486;9.640;2023-03-04T01:14:35;99287.59;;;-4.00;80.35
57779;BME280;43608;49.486;9.640;2023-03-04T01:15:07;99302.59;;;-3.94;80.32
57779;BME280;43608;49.486;9.640;2023-03-04T01:15:38;99282.91;;;-4.06;80.63
57779;BME280;43608;49.486;9.640;2023-03-04T01:16:08;99296.34;;;-3.98;80.67
57779;BME280;43608;49.486;9.640;2023-03-04T01:16:40;99295.75;;;-3.94;80.72
57779;BME280;43608;49.486;9.640;2023-03-04T01:17:10;99315.84;;;-3.90;80.55
57779;BME280;43608;49.486;9.640;2023-03-04T01:17:41;99288.06;;;-4.06;80.26
57779;BME280;43608;49.486;9.640;2023-03-04T01:18:11;99299.94;;;-3.96;80.89
57779;BME280;43608;49.486;9.640;2023-03-04T01:18:42;99288.06;;;-4.06;80.57
57779;BME280;43608;49.486;9.640;2023-03-04T01:19:12;99278.25;;;-4.11;80.76
57779;BME280;43608;49.486;9.640;2023-03-04T01:19:43;99306.19;;;-3.92;80.73
57779;BME280;43608;49.486;9.640;2023-03-04T01:20:13;99294.25;;;-4.04;80.69
57779;BME280;43608;49.486;9.640;2023-03-04T01:20:44;99254.88;;;-4.26;80.59
57779;BME280;43608;49.486;9.640;2023-03-04T01:21:14;99313.88;;;-3.94;80.71
57779;BME280;43608;49.486;9.640;2023-03-04T01:21:44;99232.41;;;-4.41;80.84
57779;BME280;43608;49.486;9.640;2023-03-04T01:22:15;99297.84;;;-4.02;80.41
57779;BME280;43608;49.486;9.640;2023-03-04T01:22:48;99306.59;;;-4.00;80.82
57779;BME280;43608;49.486;9.640;2023-03-04T01:23:18;99309.28;;;-3.98;80.77
57779;BME280;43608;49.486;9.640;2023-03-04T01:23:48;99297.38;;;-4.09;80.82
57779;BME280;43608;49.486;9.640;2023-03-04T01:24:19;99275.47;;;-4.15;80.62
57779;BME280;43608;49.486;9.640;2023-03-04T01:24:49;99308.41;;;-3.99;80.27
57779;BME280;43608;49.486;9.640;2023-03-04T01:25:20;99311.88;;;-3.98;80.61
57779;BME280;43608;49.486;9.640;2023-03-04T01:25:50;99300.53;;;-4.00;80.66
57779;BME280;43608;49.486;9.640;2023-03-04T01:26:21;99301.16;;;-4.04;80.49
57779;BME280;43608;49.486;9.640;2023-03-04T01:26:51;99277.84;;;-4.18;80.73
57779;BME280;43608;49.486;9.640;2023-03-04T01:27:21;99304.72;;;-4.02;80.49
57779;BME280;43608;49.486;9.640;2023-03-04T01:27:52;99304.72;;;-4.02;80.57
57779;BME280;43608;49.486;9.640;2023-03-04T01:28:22;99301.94;;;-4.05;80.88
57779;BME280;43608;49.486;9.640;2023-03-04T01:28:52;99274.28;;;-4.20;80.93
57779;BME280;43608;49.486;9.640;2023-03-04T01:29:23;99302.81;;;-4.05;80.84
57779;BME280;43608;49.486;9.640;2023-03-04T01:29:53;99285.75;;;-4.16;80.61
57779;BME280;43608;49.486;9.640;2023-03-04T01:30:23;99304.44;;;-4.07;80.49
57779;BME280;43608;49.486;9.640;2023-03-04T01:30:54;99259.66;;;-4.33;80.86
57779;BME280;43608;49.486;9.640;2023-03-04T01:31:24;99303.53;;;-4.07;80.68
57779;BME280;43608;49.486;9.640;2023-03-04T01:31:55;99275.78;;;-4.23;80.65
57779;BME280;43608;49.486;9.640;2023-03-04T01:32:25;99284.63;;;-4.20;80.56
57779;BME280;43608;49.486;9.640;2023-03-04T01:32:56;99298.25;;;-4.09;80.85
57779;BME280;43608;49.486;9.640;2023-03-04T01:33:26;99268.53;;;-4.29;80.95
57779;BME280;43608;49.486;9.640;2023-03-04T01:33:56;99289.03;;;-4.19;80.97
57779;BME280;43608;49.486;9.640;2023-03-04T01:34:27;99291.88;;;-4.14;80.51
57779;BME280;43608;49.486;9.640;2023-03-04T01:34:57;99277.56;;;-4.22;81.09
57779;BME280;43608;49.486;9.640;2023-03-04T01:35:27;99299.75;;;-4.12;80.75
57779;BME280;43608;49.486;9.640;2023-03-04T01:35:58;99297.75;;;-4.17;80.50
57779;BME280;43608;49.486;9.640;2023-03-04T01:36:28;99293.09;;;-4.22;80.55
57779;BME280;43608;49.486;9.640;2023-03-04T01:36:58;99291.63;;;-4.19;80.46
57779;BME280;43608;49.486;9.640;2023-03-04T01:37:29;99291.78;;;-4.16;80.51
57779;BME280;43608;49.486;9.640;2023-03-04T01:37:59;99292.41;;;-4.20;80.66
57779;BME280;43608;49.486;9.640;2023-03-04T01:38:29;99278.19;;;-4.26;80.84
57779;BME280;43608;49.486;9.640;2023-03-04T01:39:00;99294.69;;;-4.24;80.92
57779;BME280;43608;49.486;9.640;2023-03-04T01:39:30;99301.16;;;-4.18;80.70
57779;BME280;43608;49.486;9.640;2023-03-04T01:40:01;99289.81;;;-4.20;80.96
57779;BME280;43608;49.486;9.640;2023-03-04T01:40:32;99261.75;;;-4.40;80.90
57779;BME280;43608;49.486;9.640;2023-03-04T01:41:02;99295.88;;;-4.19;80.29
57779;BME280;43608;49.486;9.640;2023-03-04T01:41:33;99300.25;;;-4.18;80.79
57779;BME280;43608;49.486;9.640;2023-03-04T01:42:03;99297.50;;;-4.21;80.88
57779;BME280;43608;49.486;9.640;2023-03-04T01:42:34;99292.09;;;-4.24;80.86
57779;BME280;43608;49.486;9.640;2023-03-04T01:43:05;99295.59;;;-4.24;80.63
57779;BME280;43608;49.486;9.640;2023-03-04T01:43:36;99269.63;;;-4.39;80.68
57779;BME280;43608;49.486;9.640;2023-03-04T01:44:08;99294.91;;;-4.21;80.76
57779;BME280;43608;49.486;9.640;2023-03-04T01:44:40;99278.75;;;-4.31;80.70
57779;BME280;43608;49.486;9.640;2023-03-04T01:45:13;99287.53;;;-4.28;80.57
57779;BME280;43608;49.486;9.640;2023-03-04T01:45:47;99291.22;;;-4.25;81.19
57779;BME280;43608;49.486;9.640;2023-03-04T01:46:17;99283.06;;;-4.31;80.46
57779;BME280;43608;49.486;9.640;2023-03-04T01:46:53;99289.00;;;-4.32;81.03
57779;BME280;43608;49.486;9.640;2023-03-04T01:47:27;99275.69;;;-4.38;80.84
57779;BME280;43608;49.486;9.640;2023-03-04T01:47:57;99277.38;;;-4.39;81.07
57779;BME280;43608;49.486;9.640;2023-03-04T01:48:32;99286.44;;;-4.32;80.76
57779;BME280;43608;49.486;9.640;2023-03-04T01:49:05;99272.81;;;-4.43;80.98
57779;BME280;43608;49.486;9.640;2023-03-04T01:49:36;99288.94;;;-4.34;80.80
57779;BME280;43608;49.486;9.640;2023-03-04T01:50:12;99281.94;;;-4.35;81.15
57779;BME280;43608;49.486;9.640;2023-03-04T01:50:45;99281.69;;;-4.39;80.88
57779;BME280;43608;49.486;9.640;2023-03-04T01:51:17;99292.53;;;-4.32;81.03
57779;BME280;43608;49.486;9.640;2023-03-04T01:51:51;99279.19;;;-4.38;81.24
57779;BME280;43608;49.486;9.640;2023-03-04T01:52:22;99257.31;;;-4.56;80.90
57779;BME280;43608;49.486;9.640;2023-03-04T01:52:53;99290.72;;;-4.33;81.22
57779;BME280;43608;49.486;9.640;2023-03-04T01:53:25;99270.03;;;-4.46;80.71
57779;BME280;43608;49.486;9.640;2023-03-04T01:53:56;99276.41;;;-4.41;81.19
57779;BME280;43608;49.486;9.640;2023-03-04T01:54:27;99264.75;;;-4.48;80.81
57779;BME280;43608;49.486;9.640;2023-03-04T01:54:57;99237.19;;;-4.60;81.23
57779;BME280;43608;49.486;9.640;2023-03-04T01:55:29;99276.78;;;-4.35;80.71
57779;BME280;43608;49.486;9.640;2023-03-04T01:56:04;99279.28;;;-4.36;80.83
57779;BME280;43608;49.486;9.640;2023-03-04T01:56:40;99280.06;;;-4.37;80.88
57779;BME280;43608;49.486;9.640;2023-03-04T01:57:22;99277.38;;;-4.39;81.26
57779;BME280;43608;49.486;9.640;2023-03-04T01:57:53;99250.34;;;-4.57;80.84
57779;BME280;43608;49.486;9.640;2023-03-04T01:58:28;99250.34;;;-4.57;80.79
57779;BME280;43608;49.486;9.640;2023-03-04T01:59:41;99270.91;;;-4.45;81.41
57779;BME280;43608;49.486;9.640;2023-03-04T02:00:51;99279.78;;;-4.42;81.14
57779;BME280;43608;49.486;9.640;2023-03-04T02:01:21;99279.69;;;-4.43;81.20
57779;BME280;43608;49.486;9.640;2023-03-04T02:01:54;99276.97;;;-4.45;80.92
57779;BME280;43608;49.486;9.640;2023-03-04T02:02:25;99271.44;;;-4.51;81.24
57779;BME280;43608;49.486;9.640;2023-03-04T02:03:08;99260.16;;;-4.52;81.21
57779;BME280;43608;49.486;9.640;2023-03-04T02:03:40;99280.56;;;-4.43;81.19
57779;BME280;43608;49.486;9.640;2023-03-04T02:04:11;99277.09;;;-4.43;81.59
57779;BME280;43608;49.486;9.640;2023-03-04T02:04:42;99271.63;;;-4.48;81.68
57779;BME280;43608;49.486;9.640;2023-03-04T02:05:13;99277.81;;;-4.46;81.23
57779;BME280;43608;49.486;9.640;2023-03-04T02:05:46;99284.88;;;-4.43;81.54
57779;BME280;43608;49.486;9.640;2023-03-04T02:06:17;99276.97;;;-4.45;81.33
57779;BME280;43608;49.486;9.640;2023-03-04T02:06:49;99275.00;;;-4.49;81.38
57779;BME280;43608;49.486;9.640;2023-03-04T02:07:19;99259.06;;;-4.55;81.54
57779;BME280;43608;49.486;9.640;2023-03-04T02:07:52;99275.22;;;-4.46;81.56
57779;BME280;43608;49.486;9.640;2023-03-04T02:08:24;99257.41;;;-4.55;81.43
57779;BME280;43608;49.486;9.640;2023-03-04T02:08:55;99263.75;;;-4.50;81.71
57779;BME280;43608;49.486;9.640;2023-03-04T02:09:26;99274.81;;;-4.52;81.37
57779;BME280;43608;49.486;9.640;2023-03-04T02:09:57;99284.75;;;-4.45;81.18
57779;BME280;43608;49.486;9.640;2023-03-04T02:10:27;99248.13;;;-4.65;81.65
57779;BME280;43608;49.486;9.640;2023-03-04T02:10:57;99271.53;;;-4.50;81.68
57779;BME280;43608;49.486;9.640;2023-03-04T02:11:28;99281.88;;;-4.50;81.61
57779;BME280;43608;49.486;9.640;2023-03-04T02:11:58;99286.25;;;-4.49;81.55
57779;BME280;43608;49.486;9.640;2023-03-04T02:12:29;99278.38;;;-4.50;81.96
57779;BME280;43608;49.486;9.640;2023-03-04T02:13:00;99270.25;;;-4.56;81.57
57779;BME280;43608;49.486;9.640;2023-03-04T02:13:31;99264.16;;;-4.57;81.77
57779;BME280;43608;49.486;9.640;2023-03-04T02:14:04;99251.50;;;-4.66;81.36
57779;BME280;43608;49.486;9.640;2023-03-04T02:14:35;99272.22;;;-4.52;81.52
57779;BME280;43608;49.486;9.640;2023-03-04T02:15:06;99262.25;;;-4.59;81.95
57779;BME280;43608;49.486;9.640;2023-03-04T02:15:37;99266.72;;;-4.57;81.89
57779;BME280;43608;49.486;9.640;2023-03-04T02:16:07;99274.59;;;-4.55;81.84
57779;BME280;43608;49.486;9.640;2023-03-04T02:16:38;99262.94;;;-4.62;81.76
57779;BME280;43608;49.486;9.640;2023-03-04T02:17:12;99261.84;;;-4.66;81.82
57779;BME280;43608;49.486;9.640;2023-03-04T02:17:42;99256.59;;;-4.67;81.89
57779;BME280;43608;49.486;9.640;2023-03-04T02:18:16;99280.59;;;-4.56;81.54
57779;BME280;43608;49.486;9.640;2023-03-04T02:18:47;99271.03;;;-4.57;81.84
57779;BME280;43608;49.486;9.640;2023-03-04T02:21:01;99268.13;;;-4.62;81.60
57779;BME280;43608;49.486;9.640;2023-03-04T02:21:33;99275.69;;;-4.65;81.73
57779;BME280;43608;49.486;9.640;2023-03-04T02:22:04;99273.22;;;-4.63;82.10
57779;BME280;43608;49.486;9.640;2023-03-04T02:22:37;99268.81;;;-4.65;81.58
57779;BME280;43608;49.486;9.640;2023-03-04T02:23:19;99279.16;;;-4.65;81.47
57779;BME280;43608;49.486;9.640;2023-03-04T02:24:37;99270.44;;;-4.67;82.05
57779;BME280;43608;49.486;9.640;2023-03-04T02:25:15;99266.75;;;-4.70;82.05
57779;BME280;43608;49.486;9.640;2023-03-04T02:26:16;99269.34;;;-4.70;81.72
57779;BME280;43608;49.486;9.640;2023-03-04T02:26:47;99277.19;;;-4.69;81.92
57779;BME280;43608;49.486;9.640;2023-03-04T02:27:17;99280.66;;;-4.68;81.82
57779;BME280;43608;49.486;9.640;2023-03-04T02:27:48;99263.97;;;-4.73;81.80
57779;BME280;43608;49.486;9.640;2023-03-04T02:28:19;99246.06;;;-4.84;81.91
57779;BME280;43608;49.486;9.640;2023-03-04T02:28:51;99264.06;;;-4.72;81.86
57779;BME280;43608;49.486;9.640;2023-03-04T02:29:22;99274.59;;;-4.69;81.58
57779;BME280;43608;49.486;9.640;2023-03-04T02:29:52;99238.19;;;-4.85;81.77
57779;BME280;43608;49.486;9.640;2023-03-04T02:30:23;99266.84;;;-4.69;81.60
57779;BME280;43608;49.486;9.640;2023-03-04T02:30:54;99257.88;;;-4.74;81.76
57779;BME280;43608;49.486;9.640;2023-03-04T02:31:32;99264.16;;;-4.70;81.49
57779;BME280;43608;49.486;9.640;2023-03-04T02:32:03;99255.72;;;-4.81;81.37
57779;BME280;43608;49.486;9.640;2023-03-04T02:32:33;99267.44;;;-4.73;82.01
57779;BME280;43608;49.486;9.640;2023-03-04T02:33:04;99244.16;;;-4.86;81.64
57779;BME280;43608;49.486;9.640;2023-03-04T02:33:34;99250.41;;;-4.83;81.81
57779;BME280;43608;49.486;9.640;2023-03-04T02:34:50;99256.91;;;-4.76;81.68
57779;BME280;43608;49.486;9.640;2023-03-04T02:35:20;99261.25;;;-4.75;82.03
57779;BME280;43608;49.486;9.640;2023-03-04T02:35:51;99229.22;;;-4.90;81.50
57779;BME280;43608;49.486;9.640;2023-03-04T02:36:22;99258.47;;;-4.78;82.11
57779;BME280;43608;49.486;9.640;2023-03-04T02:36:53;99251.41;;;-4.81;81.95
57779;BME280;43608;49.486;9.640;2023-03-04T02:37:24;99263.97;;;-4.73;81.61
57779;BME280;43608;49.486;9.640;2023-03-04T02:37:54;99259.38;;;-4.77;82.10
57779;BME280;43608;49.486;9.640;2023-03-04T02:38:25;99263.97;;;-4.73;81.77
57779;BME280;43608;49.486;9.640;2023-03-04T02:39:01;99258.16;;;-4.83;81.89
57779;BME280;43608;49.486;9.640;2023-03-04T02:39:34;99252.22;;;-4.82;82.35
57779;BME280;43608;49.486;9.640;2023-03-04T02:40:15;99253.31;;;-4.78;82.20
57779;BME280;43608;49.486;9.640;2023-03-04T02:40:50;99262.97;;;-4.75;81.79
57779;BME280;43608;49.486;9.640;2023-03-04T02:41:24;99252.53;;;-4.77;81.96
57779;BME280;43608;49.486;9.640;2023-03-04T02:41:55;99256.91;;;-4.76;82.65
57779;BME280;43608;49.486;9.640;2023-03-04T02:42:26;99262.97;;;-4.75;82.16
57779;BME280;43608;49.486;9.640;2023-03-04T02:42:59;99253.13;;;-4.81;82.06
57779;BME280;43608;49.486;9.640;2023-03-04T02:43:30;99254.88;;;-4.80;81.68
57779;BME280;43608;49.486;9.640;2023-03-04T02:44:00;99267.25;;;-4.76;82.40
57779;BME280;43608;49.486;9.640;2023-03-04T02:44:33;99251.41;;;-4.81;82.26
57779;BME280;43608;49.486;9.640;2023-03-04T02:45:04;99224.38;;;-4.99;81.96
57779;BME280;43608;49.486;9.640;2023-03-04T02:45:44;99256.00;;;-4.76;82.58
57779;BME280;43608;49.486;9.640;2023-03-04T02:46:15;99248.84;;;-4.81;82.10
57779;BME280;43608;49.486;9.640;2023-03-04T02:46:46;99240.47;;;-4.90;82.48
57779;BME280;43608;49.486;9.640;2023-03-04T02:47:17;99236.97;;;-4.90;82.40
57779;BME280;43608;49.486;9.640;2023-03-04T02:47:48;99261.06;;;-4.78;82.54
57779;BME280;43608;49.486;9.640;2023-03-04T02:48:22;99261.94;;;-4.77;82.08
57779;BME280;43608;49.486;9.640;2023-03-04T02:48:53;99238.88;;;-4.88;82.51
57779;BME280;43608;49.486;9.640;2023-03-04T02:49:26;99267.03;;;-4.79;82.25
57779;BME280;43608;49.486;9.640;2023-03-04T02:49:56;99257.47;;;-4.80;82.34